sensor_id;sensor_type;location;lat;lon;timestamp;P1;durP1;ratioP1;P2;durP2;ratioP2
76597;SDS011;65486;53.144;18.134;2024-01-11T00:00:27;26.30;;;8.10;;
76597;SDS011;65486;53.144;18.134;2024-01-11T00:03:17;20.20;;;6.50;;
76597;SDS011;65486;53.144;18.134;2024-01-11T00:05:46;28.20;;;8.20;;
76597;SDS011;65486;53.144;18.134;2024-01-11T00:08:17;19.20;;;5.70;;
76597;SDS011;65486;53.144;18.134;2024-01-11T00:10:47;23.40;;;8.30;;
76597;SDS011;65486;53.144;18.134;2024-01-11T00:13:14;24.90;;;7.70;;
76597;SDS011;65486;53.144;18.134;2024-01-11T00:15:42;25.60;;;7.20;;
76597;SDS011;65486;53.144;18.134;2024-01-11T00:18:11;25.40;;;8.00;;
76597;SDS011;65486;53.144;18.134;2024-01-11T00:20:39;20.40;;;7.00;;
76597;SDS011;65486;53.144;18.134;2024-01-11T00:23:15;18.90;;;6.10;;
76597;SDS011;65486;53.144;18.134;2024-01-11T00:25:42;20.70;;;6.40;;
76597;SDS011;65486;53.144;18.134;2024-01-11T00:28:10;17.50;;;5.10;;
76597;SDS011;65486;53.144;18.134;2024-01-11T00:30:37;18.70;;;6.10;;
76597;SDS011;65486;53.144;18.134;2024-01-11T00:33:04;18.50;;;5.30;;
76597;SDS011;65486;53.144;18.134;2024-01-11T00:35:31;16.20;;;5.30;;
76597;SDS011;65486;53.144;18.134;2024-01-11T00:37:58;17.70;;;4.70;;
76597;SDS011;65486;53.144;18.134;2024-01-11T00:40:25;24.80;;;8.00;;
76597;SDS011;65486;53.144;18.134;2024-01-11T00:42:52;26.40;;;7.30;;
76597;SDS011;65486;53.144;18.134;2024-01-11T00:45:19;25.40;;;8.10;;
76597;SDS011;65486;53.144;18.134;2024-01-11T00:48:07;22.80;;;7.00;;
76597;SDS011;65486;53.144;18.134;2024-01-11T00:50:33;21.20;;;6.30;;
76597;SDS011;65486;53.144;18.134;2024-01-11T00:53:00;16.70;;;5.00;;
76597;SDS011;65486;53.144;18.134;2024-01-11T00:55:28;15.80;;;4.90;;
76597;SDS011;65486;53.144;18.134;2024-01-11T00:57:57;15.40;;;4.50;;
76597;SDS011;65486;53.144;18.134;2024-01-11T01:00:26;14.10;;;4.00;;
76597;SDS011;65486;53.144;18.134;2024-01-11T01:02:55;11.80;;;3.60;;
76597;SDS011;65486;53.144;18.134;2024-01-11T01:05:28;22.10;;;6.60;;
76597;SDS011;65486;53.144;18.134;2024-01-11T01:07:57;14.30;;;3.80;;
76597;SDS011;65486;53.144;18.134;2024-01-11T01:10:26;23.70;;;7.60;;
76597;SDS011;65486;53.144;18.134;2024-01-11T01:12:57;21.50;;;6.10;;
76597;SDS011;65486;53.144;18.134;2024-01-11T01:15:24;30.60;;;8.00;;
76597;SDS011;65486;53.144;18.134;2024-01-11T01:17:51;27.10;;;8.00;;
76597;SDS011;65486;53.144;18.134;2024-01-11T01:20:22;30.70;;;10.00;;
76597;SDS011;65486;53.144;18.134;2024-01-11T01:22:49;25.80;;;7.40;;
76597;SDS011;65486;53.144;18.134;2024-01-11T01:25:17;21.70;;;7.70;;
76597;SDS011;65486;53.144;18.134;2024-01-11T01:27:45;28.20;;;9.00;;
76597;SDS011;65486;53.144;18.134;2024-01-11T01:30:12;33.60;;;9.90;;
76597;SDS011;65486;53.144;18.134;2024-01-11T01:32:40;24.50;;;8.00;;
76597;SDS011;65486;53.144;18.134;2024-01-11T01:35:10;35.70;;;10.70;;
76597;SDS011;65486;53.144;18.134;2024-01-11T01:37:37;27.10;;;8.40;;
76597;SDS011;65486;53.144;18.134;2024-01-11T01:40:04;31.60;;;9.80;;
76597;SDS011;65486;53.144;18.134;2024-01-11T01:45:27;28.20;;;8.00;;
76597;SDS011;65486;53.144;18.134;2024-01-11T01:47:54;25.90;;;6.90;;
76597;SDS011;65486;53.144;18.134;2024-01-11T01:50:22;33.20;;;10.90;;
76597;SDS011;65486;53.144;18.134;2024-01-11T01:52:51;17.90;;;6.00;;
76597;SDS011;65486;53.144;18.134;2024-01-11T01:55:21;22.00;;;7.10;;
76597;SDS011;65486;53.144;18.134;2024-01-11T01:57:50;27.50;;;8.50;;
76597;SDS011;65486;53.144;18.134;2024-01-11T02:00:20;24.30;;;7.30;;
76597;SDS011;65486;53.144;18.134;2024-01-11T02:02:49;28.30;;;8.90;;
76597;SDS011;65486;53.144;18.134;2024-01-11T02:05:23;31.50;;;10.10;;
76597;SDS011;65486;53.144;18.134;2024-01-11T02:07:55;27.20;;;7.80;;
76597;SDS011;65486;53.144;18.134;2024-01-11T02:10:28;33.40;;;8.60;;
76597;SDS011;65486;53.144;18.134;2024-01-11T02:13:00;40.30;;;11.50;;
76597;SDS011;65486;53.144;18.134;2024-01-11T02:15:28;36.60;;;11.30;;
76597;SDS011;65486;53.144;18.134;2024-01-11T02:17:55;38.80;;;10.60;;
76597;SDS011;65486;53.144;18.134;2024-01-11T02:20:25;29.30;;;10.30;;
76597;SDS011;65486;53.144;18.134;2024-01-11T02:22:56;32.60;;;10.10;;
76597;SDS011;65486;53.144;18.134;2024-01-11T02:25:28;26.40;;;8.20;;
76597;SDS011;65486;53.144;18.134;2024-01-11T02:28:00;33.40;;;10.30;;
76597;SDS011;65486;53.144;18.134;2024-01-11T02:30:30;37.10;;;10.80;;
76597;SDS011;65486;53.144;18.134;2024-01-11T02:32:57;26.00;;;7.70;;
76597;SDS011;65486;53.144;18.134;2024-01-11T02:35:27;38.70;;;10.60;;
76597;SDS011;65486;53.144;18.134;2024-01-11T02:37:55;15.20;;;4.60;;
76597;SDS011;65486;53.144;18.134;2024-01-11T02:40:27;29.40;;;8.40;;
76597;SDS011;65486;53.144;18.134;2024-01-11T02:43:13;36.30;;;9.40;;
76597;SDS011;65486;53.144;18.134;2024-01-11T02:45:40;31.00;;;9.70;;
76597;SDS011;65486;53.144;18.134;2024-01-11T02:48:09;33.20;;;9.20;;
76597;SDS011;65486;53.144;18.134;2024-01-11T02:50:37;30.80;;;9.00;;
76597;SDS011;65486;53.144;18.134;2024-01-11T02:53:04;32.90;;;9.40;;
76597;SDS011;65486;53.144;18.134;2024-01-11T02:55:33;32.20;;;9.50;;
76597;SDS011;65486;53.144;18.134;2024-01-11T02:58:00;32.50;;;9.70;;
76597;SDS011;65486;53.144;18.134;2024-01-11T03:00:27;30.20;;;8.60;;
76597;SDS011;65486;53.144;18.134;2024-01-11T03:02:55;32.30;;;8.90;;
76597;SDS011;65486;53.144;18.134;2024-01-11T03:05:25;22.00;;;7.10;;
76597;SDS011;65486;53.144;18.134;2024-01-11T03:07:52;18.40;;;6.40;;
76597;SDS011;65486;53.144;18.134;2024-01-11T03:10:24;23.20;;;7.70;;
76597;SDS011;65486;53.144;18.134;2024-01-11T03:12:52;27.70;;;9.10;;
76597;SDS011;65486;53.144;18.134;2024-01-11T03:15:23;23.20;;;7.20;;
76597;SDS011;65486;53.144;18.134;2024-01-11T03:17:50;23.00;;;6.60;;
76597;SDS011;65486;53.144;18.134;2024-01-11T03:20:17;25.70;;;8.50;;
76597;SDS011;65486;53.144;18.134;2024-01-11T03:22:48;17.20;;;5.10;;
76597;SDS011;65486;53.144;18.134;2024-01-11T03:25:15;15.70;;;5.60;;
76597;SDS011;65486;53.144;18.134;2024-01-11T03:27:43;19.00;;;6.10;;
76597;SDS011;65486;53.144;18.134;2024-01-11T03:30:11;24.70;;;11.10;;
76597;SDS011;65486;53.144;18.134;2024-01-11T03:32:40;18.00;;;8.10;;
76597;SDS011;65486;53.144;18.134;2024-01-11T03:35:08;19.50;;;7.40;;
76597;SDS011;65486;53.144;18.134;2024-01-11T03:37:38;15.70;;;5.10;;
76597;SDS011;65486;53.144;18.134;2024-01-11T03:40:06;19.90;;;7.10;;
76597;SDS011;65486;53.144;18.134;2024-01-11T03:42:34;24.50;;;7.20;;
76597;SDS011;65486;53.144;18.134;2024-01-11T03:45:01;16.10;;;5.40;;
76597;SDS011;65486;53.144;18.134;2024-01-11T03:47:32;15.80;;;5.10;;
76597;SDS011;65486;53.144;18.134;2024-01-11T03:50:01;13.00;;;5.10;;
76597;SDS011;65486;53.144;18.134;2024-01-11T03:52:29;16.40;;;6.00;;
76597;SDS011;65486;53.144;18.134;2024-01-11T03:54:57;20.50;;;7.20;;
76597;SDS011;65486;53.144;18.134;2024-01-11T03:57:24;15.90;;;5.50;;
76597;SDS011;65486;53.144;18.134;2024-01-11T03:59:51;18.10;;;6.50;;
76597;SDS011;65486;53.144;18.134;2024-01-11T04:02:18;19.20;;;6.20;;
76597;SDS011;65486;53.144;18.134;2024-01-11T04:04:46;13.30;;;4.40;;
76597;SDS011;65486;53.144;18.134;2024-01-11T04:07:13;19.30;;;6.30;;
76597;SDS011;65486;53.144;18.134;2024-01-11T04:09:40;19.10;;;6.90;;
76597;SDS011;65486;53.144;18.134;2024-01-11T04:12:07;22.30;;;7.10;;
76597;SDS011;65486;53.144;18.134;2024-01-11T04:14:38;19.80;;;6.50;;
76597;SDS011;65486;53.144;18.134;2024-01-11T04:17:08;10.30;;;4.20;;
76597;SDS011;65486;53.144;18.134;2024-01-11T04:19:36;16.30;;;5.70;;
76597;SDS011;65486;53.144;18.134;2024-01-11T04:22:19;15.30;;;5.00;;
76597;SDS011;65486;53.144;18.134;2024-01-11T04:24:46;13.40;;;4.70;;
76597;SDS011;65486;53.144;18.134;2024-01-11T04:27:13;19.70;;;6.60;;
76597;SDS011;65486;53.144;18.134;2024-01-11T04:29:41;12.20;;;4.70;;
76597;SDS011;65486;53.144;18.134;2024-01-11T04:32:08;9.80;;;2.90;;
76597;SDS011;65486;53.144;18.134;2024-01-11T04:34:36;18.20;;;6.90;;
76597;SDS011;65486;53.144;18.134;2024-01-11T04:37:05;18.60;;;6.70;;
76597;SDS011;65486;53.144;18.134;2024-01-11T04:39:34;18.20;;;6.50;;
76597;SDS011;65486;53.144;18.134;2024-01-11T04:42:02;14.20;;;4.60;;
76597;SDS011;65486;53.144;18.134;2024-01-11T04:44:30;19.30;;;6.70;;
76597;SDS011;65486;53.144;18.134;2024-01-11T04:46:57;16.00;;;5.90;;
76597;SDS011;65486;53.144;18.134;2024-01-11T04:49:24;12.30;;;5.30;;
76597;SDS011;65486;53.144;18.134;2024-01-11T04:51:52;24.80;;;7.90;;
76597;SDS011;65486;53.144;18.134;2024-01-11T04:54:19;11.60;;;4.80;;
76597;SDS011;65486;53.144;18.134;2024-01-11T04:56:46;16.40;;;5.40;;
76597;SDS011;65486;53.144;18.134;2024-01-11T04:59:13;15.90;;;6.50;;
76597;SDS011;65486;53.144;18.134;2024-01-11T05:01:49;19.80;;;8.30;;
76597;SDS011;65486;53.144;18.134;2024-01-11T05:04:29;19.80;;;7.10;;
76597;SDS011;65486;53.144;18.134;2024-01-11T05:07:06;19.30;;;7.10;;
76597;SDS011;65486;53.144;18.134;2024-01-11T05:09:35;15.80;;;6.30;;
76597;SDS011;65486;53.144;18.134;2024-01-11T05:12:06;15.80;;;6.60;;
76597;SDS011;65486;53.144;18.134;2024-01-11T05:14:33;13.50;;;5.20;;
76597;SDS011;65486;53.144;18.134;2024-01-11T05:17:00;18.40;;;7.00;;
76597;SDS011;65486;53.144;18.134;2024-01-11T05:19:29;17.80;;;6.80;;
76597;SDS011;65486;53.144;18.134;2024-01-11T05:21:59;15.90;;;5.20;;
76597;SDS011;65486;53.144;18.134;2024-01-11T05:24:30;20.80;;;8.90;;
76597;SDS011;65486;53.144;18.134;2024-01-11T05:26:59;15.60;;;6.10;;
76597;SDS011;65486;53.144;18.134;2024-01-11T05:29:27;14.00;;;5.20;;
76597;SDS011;65486;53.144;18.134;2024-01-11T05:31:54;17.20;;;6.40;;
76597;SDS011;65486;53.144;18.134;2024-01-11T05:34:23;21.70;;;8.80;;
76597;SDS011;65486;53.144;18.134;2024-01-11T05:36:50;15.60;;;6.10;;
76597;SDS011;65486;53.144;18.134;2024-01-11T05:39:18;15.90;;;6.20;;
76597;SDS011;65486;53.144;18.134;2024-01-11T05:41:46;14.40;;;6.20;;
76597;SDS011;65486;53.144;18.134;2024-01-11T05:44:15;16.10;;;6.30;;
76597;SDS011;65486;53.144;18.134;2024-01-11T05:46:45;16.20;;;6.10;;
76597;SDS011;65486;53.144;18.134;2024-01-11T05:49:14;11.80;;;5.10;;
76597;SDS011;65486;53.144;18.134;2024-01-11T05:51:45;17.80;;;7.30;;
76597;SDS011;65486;53.144;18.134;2024-01-11T05:54:12;14.50;;;5.60;;
76597;SDS011;65486;53.144;18.134;2024-01-11T05:56:39;10.90;;;4.70;;
76597;SDS011;65486;53.144;18.134;2024-01-11T05:59:07;14.10;;;5.30;;
76597;SDS011;65486;53.144;18.134;2024-01-11T06:01:40;14.30;;;6.20;;
76597;SDS011;65486;53.144;18.134;2024-01-11T06:04:11;11.10;;;4.60;;
76597;SDS011;65486;53.144;18.134;2024-01-11T06:06:39;11.60;;;4.90;;
76597;SDS011;65486;53.144;18.134;2024-01-11T06:09:07;16.40;;;7.00;;
76597;SDS011;65486;53.144;18.134;2024-01-11T06:14:28;20.60;;;7.40;;
76597;SDS011;65486;53.144;18.134;2024-01-11T06:16:57;11.80;;;5.00;;
76597;SDS011;65486;53.144;18.134;2024-01-11T06:19:30;8.70;;;3.70;;
76597;SDS011;65486;53.144;18.134;2024-01-11T06:22:21;16.40;;;6.50;;
76597;SDS011;65486;53.144;18.134;2024-01-11T06:24:53;13.80;;;5.40;;
76597;SDS011;65486;53.144;18.134;2024-01-11T06:27:24;9.90;;;3.80;;
76597;SDS011;65486;53.144;18.134;2024-01-11T06:29:52;19.40;;;7.90;;
76597;SDS011;65486;53.144;18.134;2024-01-11T06:32:22;11.60;;;4.40;;
76597;SDS011;65486;53.144;18.134;2024-01-11T06:34:49;11.40;;;4.50;;
76597;SDS011;65486;53.144;18.134;2024-01-11T06:37:16;13.40;;;5.20;;
76597;SDS011;65486;53.144;18.134;2024-01-11T06:39:43;16.00;;;6.50;;
76597;SDS011;65486;53.144;18.134;2024-01-11T06:42:10;13.20;;;5.40;;
76597;SDS011;65486;53.144;18.134;2024-01-11T06:44:36;14.90;;;6.50;;
76597;SDS011;65486;53.144;18.134;2024-01-11T06:47:06;14.30;;;5.80;;
76597;SDS011;65486;53.144;18.134;2024-01-11T06:49:34;13.20;;;5.30;;
76597;SDS011;65486;53.144;18.134;2024-01-11T06:52:05;10.90;;;4.50;;
76597;SDS011;65486;53.144;18.134;2024-01-11T06:54:47;11.90;;;4.70;;
76597;SDS011;65486;53.144;18.134;2024-01-11T06:57:19;12.30;;;5.20;;
76597;SDS011;65486;53.144;18.134;2024-01-11T06:59:47;11.50;;;5.10;;
76597;SDS011;65486;53.144;18.134;2024-01-11T07:02:15;17.80;;;7.10;;
76597;SDS011;65486;53.144;18.134;2024-01-11T07:04:45;17.00;;;7.50;;
76597;SDS011;65486;53.144;18.134;2024-01-11T07:07:12;15.30;;;6.20;;
76597;SDS011;65486;53.144;18.134;2024-01-11T07:09:41;19.30;;;8.10;;
76597;SDS011;65486;53.144;18.134;2024-01-11T07:12:08;11.70;;;4.80;;
76597;SDS011;65486;53.144;18.134;2024-01-11T07:14:54;13.90;;;5.80;;
76597;SDS011;65486;53.144;18.134;2024-01-11T07:17:30;9.00;;;3.90;;
76597;SDS011;65486;53.144;18.134;2024-01-11T07:19:59;10.20;;;4.80;;
76597;SDS011;65486;53.144;18.134;2024-01-11T07:22:29;12.20;;;5.50;;
76597;SDS011;65486;53.144;18.134;2024-01-11T07:24:58;11.60;;;5.30;;
76597;SDS011;65486;53.144;18.134;2024-01-11T07:27:25;12.00;;;5.20;;
76597;SDS011;65486;53.144;18.134;2024-01-11T07:29:54;13.00;;;5.50;;
76597;SDS011;65486;53.144;18.134;2024-01-11T07:32:23;15.80;;;6.00;;
76597;SDS011;65486;53.144;18.134;2024-01-11T07:34:50;15.50;;;6.90;;
76597;SDS011;65486;53.144;18.134;2024-01-11T07:37:17;13.10;;;5.30;;
76597;SDS011;65486;53.144;18.134;2024-01-11T07:39:47;14.30;;;5.60;;
76597;SDS011;65486;53.144;18.134;2024-01-11T07:42:19;16.00;;;7.10;;
76597;SDS011;65486;53.144;18.134;2024-01-11T07:44:49;11.60;;;4.70;;
76597;SDS011;65486;53.144;18.134;2024-01-11T07:47:22;16.50;;;6.70;;
76597;SDS011;65486;53.144;18.134;2024-01-11T07:49:50;18.30;;;7.60;;
76597;SDS011;65486;53.144;18.134;2024-01-11T07:52:17;12.40;;;5.40;;
76597;SDS011;65486;53.144;18.134;2024-01-11T07:54:44;14.00;;;5.40;;
76597;SDS011;65486;53.144;18.134;2024-01-11T07:57:12;15.00;;;6.60;;
76597;SDS011;65486;53.144;18.134;2024-01-11T07:59:41;17.90;;;7.90;;
76597;SDS011;65486;53.144;18.134;2024-01-11T08:02:15;18.30;;;7.80;;
76597;SDS011;65486;53.144;18.134;2024-01-11T08:04:50;12.40;;;5.10;;
76597;SDS011;65486;53.144;18.134;2024-01-11T08:07:29;18.00;;;7.40;;
76597;SDS011;65486;53.144;18.134;2024-01-11T08:09:57;14.80;;;6.00;;
76597;SDS011;65486;53.144;18.134;2024-01-11T08:12:24;16.80;;;6.60;;
76597;SDS011;65486;53.144;18.134;2024-01-11T08:14:53;17.20;;;6.80;;
76597;SDS011;65486;53.144;18.134;2024-01-11T08:17:20;12.40;;;5.50;;
76597;SDS011;65486;53.144;18.134;2024-01-11T08:19:49;19.60;;;7.10;;
76597;SDS011;65486;53.144;18.134;2024-01-11T08:22:23;15.20;;;6.50;;
76597;SDS011;65486;53.144;18.134;2024-01-11T08:24:59;19.00;;;8.00;;
76597;SDS011;65486;53.144;18.134;2024-01-11T08:28:01;15.10;;;5.60;;
76597;SDS011;65486;53.144;18.134;2024-01-11T08:31:30;9.30;;;4.70;;
76597;SDS011;65486;53.144;18.134;2024-01-11T08:33:57;12.70;;;5.60;;
76597;SDS011;65486;53.144;18.134;2024-01-11T08:36:24;11.40;;;5.30;;
76597;SDS011;65486;53.144;18.134;2024-01-11T08:38:56;11.80;;;5.10;;
76597;SDS011;65486;53.144;18.134;2024-01-11T08:41:23;11.70;;;5.80;;
76597;SDS011;65486;53.144;18.134;2024-01-11T08:43:55;11.40;;;5.00;;
76597;SDS011;65486;53.144;18.134;2024-01-11T08:46:28;20.50;;;9.00;;
76597;SDS011;65486;53.144;18.134;2024-01-11T08:49:00;13.50;;;6.20;;
76597;SDS011;65486;53.144;18.134;2024-01-11T08:51:31;13.60;;;6.70;;
76597;SDS011;65486;53.144;18.134;2024-01-11T08:54:15;13.90;;;6.40;;
76597;SDS011;65486;53.144;18.134;2024-01-11T08:56:42;22.40;;;9.90;;
76597;SDS011;65486;53.144;18.134;2024-01-11T08:59:11;15.30;;;6.90;;
76597;SDS011;65486;53.144;18.134;2024-01-11T09:01:42;22.90;;;9.30;;
76597;SDS011;65486;53.144;18.134;2024-01-11T09:04:20;16.20;;;6.80;;
76597;SDS011;65486;53.144;18.134;2024-01-11T09:06:51;19.60;;;9.30;;
76597;SDS011;65486;53.144;18.134;2024-01-11T09:09:23;18.20;;;7.60;;
76597;SDS011;65486;53.144;18.134;2024-01-11T09:11:57;23.10;;;9.80;;
76597;SDS011;65486;53.144;18.134;2024-01-11T09:14:32;21.30;;;9.60;;
76597;SDS011;65486;53.144;18.134;2024-01-11T09:17:04;18.60;;;8.90;;
76597;SDS011;65486;53.144;18.134;2024-01-11T09:19:34;16.40;;;7.70;;
76597;SDS011;65486;53.144;18.134;2024-01-11T09:22:03;18.60;;;8.70;;
76597;SDS011;65486;53.144;18.134;2024-01-11T09:24:31;21.60;;;8.90;;
76597;SDS011;65486;53.144;18.134;2024-01-11T09:27:01;17.00;;;7.40;;
76597;SDS011;65486;53.144;18.134;2024-01-11T09:29:28;16.00;;;7.10;;
76597;SDS011;65486;53.144;18.134;2024-01-11T09:31:59;16.10;;;6.90;;
76597;SDS011;65486;53.144;18.134;2024-01-11T09:34:27;23.00;;;9.90;;
76597;SDS011;65486;53.144;18.134;2024-01-11T09:36:57;18.60;;;8.30;;
76597;SDS011;65486;53.144;18.134;2024-01-11T09:39:26;21.00;;;9.10;;
76597;SDS011;65486;53.144;18.134;2024-01-11T09:42:11;13.70;;;6.70;;
76597;SDS011;65486;53.144;18.134;2024-01-11T09:44:39;17.50;;;8.10;;
76597;SDS011;65486;53.144;18.134;2024-01-11T09:47:10;23.50;;;9.40;;
76597;SDS011;65486;53.144;18.134;2024-01-11T09:49:41;15.50;;;6.90;;
76597;SDS011;65486;53.144;18.134;2024-01-11T09:52:19;20.10;;;8.60;;
76597;SDS011;65486;53.144;18.134;2024-01-11T09:54:50;18.80;;;8.50;;
76597;SDS011;65486;53.144;18.134;2024-01-11T09:57:47;22.60;;;9.40;;
76597;SDS011;65486;53.144;18.134;2024-01-11T10:00:19;21.60;;;9.50;;
76597;SDS011;65486;53.144;18.134;2024-01-11T10:02:50;15.70;;;6.60;;
76597;SDS011;65486;53.144;18.134;2024-01-11T10:05:19;16.80;;;7.40;;
76597;SDS011;65486;53.144;18.134;2024-01-11T10:07:46;19.80;;;8.00;;
76597;SDS011;65486;53.144;18.134;2024-01-11T10:10:13;19.40;;;8.40;;
76597;SDS011;65486;53.144;18.134;2024-01-11T10:12:52;13.70;;;5.90;;
76597;SDS011;65486;53.144;18.134;2024-01-11T10:15:24;15.80;;;6.00;;
76597;SDS011;65486;53.144;18.134;2024-01-11T10:18:00;17.40;;;7.70;;
76597;SDS011;65486;53.144;18.134;2024-01-11T10:20:37;15.10;;;7.30;;
76597;SDS011;65486;53.144;18.134;2024-01-11T10:23:18;11.10;;;5.30;;
76597;SDS011;65486;53.144;18.134;2024-01-11T10:25:48;13.60;;;5.90;;
76597;SDS011;65486;53.144;18.134;2024-01-11T10:28:15;17.60;;;8.40;;
76597;SDS011;65486;53.144;18.134;2024-01-11T10:30:47;10.10;;;4.90;;
76597;SDS011;65486;53.144;18.134;2024-01-11T10:33:24;11.20;;;5.20;;
76597;SDS011;65486;53.144;18.134;2024-01-11T10:36:15;9.80;;;4.20;;
76597;SDS011;65486;53.144;18.134;2024-01-11T10:38:46;17.00;;;6.60;;
76597;SDS011;65486;53.144;18.134;2024-01-11T10:41:18;18.20;;;8.00;;
76597;SDS011;65486;53.144;18.134;2024-01-11T10:43:48;13.10;;;6.40;;
76597;SDS011;65486;53.144;18.134;2024-01-11T10:46:19;13.50;;;6.10;;
76597;SDS011;65486;53.144;18.134;2024-01-11T10:48:48;11.00;;;5.10;;
76597;SDS011;65486;53.144;18.134;2024-01-11T10:51:22;14.80;;;6.70;;
76597;SDS011;65486;53.144;18.134;2024-01-11T10:53:52;11.60;;;5.50;;
76597;SDS011;65486;53.144;18.134;2024-01-11T10:56:20;10.90;;;5.50;;
76597;SDS011;65486;53.144;18.134;2024-01-11T10:58:48;11.90;;;5.60;;
76597;SDS011;65486;53.144;18.134;2024-01-11T11:01:26;14.40;;;6.20;;
76597;SDS011;65486;53.144;18.134;2024-01-11T11:03:54;9.50;;;4.40;;
76597;SDS011;65486;53.144;18.134;2024-01-11T11:06:26;12.30;;;5.40;;
76597;SDS011;65486;53.144;18.134;2024-01-11T11:08:57;9.90;;;3.90;;
76597;SDS011;65486;53.144;18.134;2024-01-11T11:11:25;13.20;;;6.20;;
76597;SDS011;65486;53.144;18.134;2024-01-11T11:13:52;15.50;;;6.60;;
76597;SDS011;65486;53.144;18.134;2024-01-11T11:16:27;13.80;;;5.10;;
76597;SDS011;65486;53.144;18.134;2024-01-11T11:18:54;13.90;;;6.30;;
76597;SDS011;65486;53.144;18.134;2024-01-11T11:21:23;18.30;;;8.50;;
76597;SDS011;65486;53.144;18.134;2024-01-11T11:24:07;13.20;;;6.30;;
76597;SDS011;65486;53.144;18.134;2024-01-11T11:26:35;12.10;;;5.60;;
76597;SDS011;65486;53.144;18.134;2024-01-11T11:29:04;16.40;;;7.30;;
76597;SDS011;65486;53.144;18.134;2024-01-11T11:31:38;9.70;;;5.10;;
76597;SDS011;65486;53.144;18.134;2024-01-11T11:34:16;10.40;;;4.90;;
76597;SDS011;65486;53.144;18.134;2024-01-11T11:36:47;13.60;;;5.60;;
76597;SDS011;65486;53.144;18.134;2024-01-11T11:39:21;8.10;;;4.30;;
76597;SDS011;65486;53.144;18.134;2024-01-11T11:41:51;9.40;;;4.10;;
76597;SDS011;65486;53.144;18.134;2024-01-11T11:44:32;13.90;;;6.90;;
76597;SDS011;65486;53.144;18.134;2024-01-11T11:49:57;10.90;;;5.10;;
76597;SDS011;65486;53.144;18.134;2024-01-11T11:52:26;14.90;;;6.50;;
76597;SDS011;65486;53.144;18.134;2024-01-11T11:54:55;9.00;;;4.20;;
76597;SDS011;65486;53.144;18.134;2024-01-11T11:57:26;11.60;;;5.10;;
76597;SDS011;65486;53.144;18.134;2024-01-11T11:59:56;15.90;;;7.70;;
76597;SDS011;65486;53.144;18.134;2024-01-11T12:02:26;12.80;;;5.80;;
76597;SDS011;65486;53.144;18.134;2024-01-11T12:04:57;10.00;;;4.30;;
76597;SDS011;65486;53.144;18.134;2024-01-11T12:07:25;7.70;;;2.90;;
76597;SDS011;65486;53.144;18.134;2024-01-11T12:09:53;9.40;;;4.40;;
76597;SDS011;65486;53.144;18.134;2024-01-11T12:12:20;11.90;;;6.20;;
76597;SDS011;65486;53.144;18.134;2024-01-11T12:15:00;11.10;;;5.20;;
76597;SDS011;65486;53.144;18.134;2024-01-11T12:17:31;11.10;;;4.30;;
76597;SDS011;65486;53.144;18.134;2024-01-11T12:20:16;10.80;;;4.50;;
76597;SDS011;65486;53.144;18.134;2024-01-11T12:22:49;11.10;;;4.90;;
76597;SDS011;65486;53.144;18.134;2024-01-11T12:25:22;9.80;;;4.20;;
76597;SDS011;65486;53.144;18.134;2024-01-11T12:28:10;14.70;;;5.30;;
76597;SDS011;65486;53.144;18.134;2024-01-11T12:30:38;9.70;;;4.60;;
76597;SDS011;65486;53.144;18.134;2024-01-11T12:33:05;8.40;;;4.20;;
76597;SDS011;65486;53.144;18.134;2024-01-11T12:35:33;11.70;;;5.20;;
76597;SDS011;65486;53.144;18.134;2024-01-11T12:38:01;13.60;;;6.00;;
76597;SDS011;65486;53.144;18.134;2024-01-11T12:40:35;11.50;;;5.30;;
76597;SDS011;65486;53.144;18.134;2024-01-11T12:43:05;10.90;;;4.70;;
76597;SDS011;65486;53.144;18.134;2024-01-11T12:45:56;13.50;;;6.70;;
76597;SDS011;65486;53.144;18.134;2024-01-11T12:48:24;9.10;;;4.40;;
76597;SDS011;65486;53.144;18.134;2024-01-11T12:50:51;15.60;;;6.60;;
76597;SDS011;65486;53.144;18.134;2024-01-11T12:53:20;22.00;;;11.00;;
76597;SDS011;65486;53.144;18.134;2024-01-11T12:56:01;15.60;;;6.20;;
76597;SDS011;65486;53.144;18.134;2024-01-11T12:58:30;10.00;;;3.60;;
76597;SDS011;65486;53.144;18.134;2024-01-11T13:01:00;15.00;;;6.30;;
76597;SDS011;65486;53.144;18.134;2024-01-11T13:03:34;7.40;;;3.30;;
76597;SDS011;65486;53.144;18.134;2024-01-11T13:06:04;13.70;;;6.50;;
76597;SDS011;65486;53.144;18.134;2024-01-11T13:08:32;8.50;;;3.60;;
76597;SDS011;65486;53.144;18.134;2024-01-11T13:10:59;14.10;;;6.20;;
76597;SDS011;65486;53.144;18.134;2024-01-11T13:13:30;12.20;;;4.80;;
76597;SDS011;65486;53.144;18.134;2024-01-11T13:15:57;12.60;;;5.90;;
76597;SDS011;65486;53.144;18.134;2024-01-11T13:18:27;9.30;;;4.80;;
76597;SDS011;65486;53.144;18.134;2024-01-11T13:20:59;10.70;;;4.60;;
76597;SDS011;65486;53.144;18.134;2024-01-11T13:23:26;11.00;;;4.10;;
76597;SDS011;65486;53.144;18.134;2024-01-11T13:25:55;8.10;;;3.80;;
76597;SDS011;65486;53.144;18.134;2024-01-11T13:28:35;10.70;;;4.40;;
76597;SDS011;65486;53.144;18.134;2024-01-11T13:31:02;10.60;;;3.90;;
76597;SDS011;65486;53.144;18.134;2024-01-11T13:33:34;10.20;;;5.20;;
76597;SDS011;65486;53.144;18.134;2024-01-11T13:36:02;9.80;;;3.70;;
76597;SDS011;65486;53.144;18.134;2024-01-11T13:38:30;9.40;;;4.20;;
76597;SDS011;65486;53.144;18.134;2024-01-11T13:40:57;10.40;;;4.50;;
76597;SDS011;65486;53.144;18.134;2024-01-11T13:43:26;8.60;;;3.60;;
76597;SDS011;65486;53.144;18.134;2024-01-11T13:45:53;15.00;;;6.40;;
76597;SDS011;65486;53.144;18.134;2024-01-11T13:48:22;9.60;;;4.20;;
76597;SDS011;65486;53.144;18.134;2024-01-11T13:50:49;12.50;;;5.40;;
76597;SDS011;65486;53.144;18.134;2024-01-11T13:53:16;15.70;;;6.50;;
76597;SDS011;65486;53.144;18.134;2024-01-11T13:55:43;10.10;;;4.20;;
76597;SDS011;65486;53.144;18.134;2024-01-11T13:58:15;5.00;;;2.40;;
76597;SDS011;65486;53.144;18.134;2024-01-11T14:00:44;9.90;;;4.40;;
76597;SDS011;65486;53.144;18.134;2024-01-11T14:03:12;9.70;;;4.30;;
76597;SDS011;65486;53.144;18.134;2024-01-11T14:05:40;14.90;;;5.80;;
76597;SDS011;65486;53.144;18.134;2024-01-11T14:08:08;8.00;;;3.70;;
76597;SDS011;65486;53.144;18.134;2024-01-11T14:10:37;7.70;;;3.30;;
76597;SDS011;65486;53.144;18.134;2024-01-11T14:13:04;11.20;;;4.60;;
76597;SDS011;65486;53.144;18.134;2024-01-11T14:15:33;10.70;;;4.20;;
76597;SDS011;65486;53.144;18.134;2024-01-11T14:18:05;10.00;;;3.60;;
76597;SDS011;65486;53.144;18.134;2024-01-11T14:20:48;8.60;;;3.70;;
76597;SDS011;65486;53.144;18.134;2024-01-11T14:23:31;11.20;;;4.00;;
76597;SDS011;65486;53.144;18.134;2024-01-11T14:25:58;9.30;;;3.10;;
76597;SDS011;65486;53.144;18.134;2024-01-11T14:28:26;9.50;;;4.10;;
76597;SDS011;65486;53.144;18.134;2024-01-11T14:30:57;7.60;;;3.60;;
76597;SDS011;65486;53.144;18.134;2024-01-11T14:33:28;12.90;;;5.20;;
76597;SDS011;65486;53.144;18.134;2024-01-11T14:35:56;9.10;;;3.80;;
76597;SDS011;65486;53.144;18.134;2024-01-11T14:38:23;11.00;;;4.60;;
76597;SDS011;65486;53.144;18.134;2024-01-11T14:40:50;13.40;;;5.00;;
76597;SDS011;65486;53.144;18.134;2024-01-11T14:43:30;8.60;;;3.50;;
76597;SDS011;65486;53.144;18.134;2024-01-11T14:46:12;10.70;;;3.70;;
76597;SDS011;65486;53.144;18.134;2024-01-11T14:48:48;7.40;;;2.80;;
76597;SDS011;65486;53.144;18.134;2024-01-11T14:51:18;5.80;;;3.10;;